createdAt,value
2018-06-25T00:04:47.955Z,18.70
2018-06-25T00:09:45.149Z,18.60
2018-06-25T00:12:13.921Z,18.60
2018-06-25T00:14:42.668Z,18.70
2018-06-25T00:17:11.292Z,18.70
2018-06-25T00:19:40.075Z,18.70
2018-06-25T00:22:08.826Z,18.70
2018-06-25T00:24:37.521Z,18.80
2018-06-25T00:27:06.278Z,18.80
2018-06-25T00:29:34.940Z,18.80
2018-06-25T00:32:03.658Z,18.80
2018-06-25T00:34:32.435Z,18.80
2018-06-25T00:37:01.143Z,18.80
2018-06-25T00:39:29.822Z,18.80
2018-06-25T00:41:59.612Z,18.80
2018-06-25T00:44:28.317Z,18.80
2018-06-25T00:46:56.995Z,18.70
2018-06-25T00:49:25.785Z,18.60
2018-06-25T00:51:54.460Z,18.60
2018-06-25T00:54:23.135Z,18.60
2018-06-25T00:56:51.812Z,18.60
2018-06-25T00:59:31.799Z,18.60
2018-06-25T01:02:01.138Z,18.60
2018-06-25T01:04:29.924Z,18.60
2018-06-25T01:06:58.704Z,18.60
2018-06-25T01:11:55.853Z,18.50
2018-06-25T01:14:24.877Z,18.50
2018-06-25T01:16:53.636Z,18.50
2018-06-25T01:19:22.376Z,18.40
2018-06-25T01:21:51.057Z,18.40
2018-06-25T01:24:19.767Z,18.50
2018-06-25T01:26:48.482Z,18.50
2018-06-25T01:29:17.200Z,18.40
2018-06-25T01:34:14.288Z,18.30
2018-06-25T01:36:43.054Z,18.40
2018-06-25T01:39:12.374Z,18.40
2018-06-25T01:44:09.419Z,18.30
2018-06-25T01:46:38.572Z,18.20
2018-06-25T01:49:07.470Z,18.10
2018-06-25T01:51:36.549Z,18.00
2018-06-25T01:54:05.326Z,18.00
2018-06-25T01:56:34.040Z,17.90
2018-06-25T01:59:02.735Z,18.00
2018-06-25T02:01:31.470Z,18.00
2018-06-25T02:04:00.184Z,18.00
2018-06-25T02:06:28.946Z,17.90
2018-06-25T02:08:57.680Z,18.00
2018-06-25T02:11:26.463Z,18.00
2018-06-25T02:13:55.233Z,18.00
2018-06-25T02:16:24.004Z,18.00
2018-06-25T02:18:52.653Z,18.10
2018-06-25T02:21:21.387Z,18.10
2018-06-25T02:23:50.043Z,18.10
2018-06-25T02:26:18.807Z,18.10
2018-06-25T02:28:47.478Z,18.10
2018-06-25T02:31:16.219Z,18.10
2018-06-25T02:33:45.468Z,18.00
2018-06-25T02:36:14.277Z,18.00
2018-06-25T02:38:43.013Z,18.00
2018-06-25T02:41:11.684Z,18.00
2018-06-25T02:43:40.569Z,18.00
2018-06-25T02:46:09.359Z,17.90
2018-06-25T02:48:38.251Z,18.00
2018-06-25T02:51:06.989Z,18.00
2018-06-25T02:53:35.750Z,18.00
2018-06-25T02:56:04.489Z,17.90
2018-06-25T02:58:33.215Z,17.90
2018-06-25T03:01:01.928Z,17.90
2018-06-25T03:03:30.668Z,17.80
2018-06-25T03:05:59.368Z,17.80
2018-06-25T03:08:28.102Z,17.70
2018-06-25T03:10:56.825Z,17.70
2018-06-25T03:13:25.617Z,17.70
2018-06-25T03:15:54.272Z,17.60
2018-06-25T03:18:22.999Z,17.50
2018-06-25T03:20:51.712Z,17.40
2018-06-25T03:23:20.451Z,17.40
2018-06-25T03:25:49.239Z,17.40
2018-06-25T03:28:17.992Z,17.30
2018-06-25T03:30:46.667Z,17.40
2018-06-25T03:33:15.423Z,17.30
2018-06-25T03:35:44.092Z,17.30
2018-06-25T03:38:12.817Z,17.30
2018-06-25T03:40:41.575Z,17.20
2018-06-25T03:43:10.235Z,17.20
2018-06-25T03:48:07.504Z,17.30
2018-06-25T03:50:36.219Z,17.20
2018-06-25T03:53:05.282Z,17.20
2018-06-25T03:55:33.947Z,17.10
2018-06-25T03:58:02.715Z,17.20
2018-06-25T04:00:31.408Z,17.20
2018-06-25T04:03:00.204Z,17.20
2018-06-25T04:05:29.039Z,17.10
2018-06-25T04:07:57.781Z,17.10
2018-06-25T04:10:26.448Z,17.20
2018-06-25T04:15:23.521Z,17.20
2018-06-25T04:20:21.485Z,17.30
2018-06-25T04:25:18.611Z,17.40
2018-06-25T04:27:47.276Z,17.40
2018-06-25T04:30:16.016Z,17.60
2018-06-25T04:35:13.140Z,17.60
2018-06-25T04:37:41.898Z,17.60
2018-06-25T04:42:39.785Z,17.50
2018-06-25T04:45:08.571Z,17.50
2018-06-25T04:50:05.676Z,17.60
2018-06-25T04:52:34.371Z,17.50
2018-06-25T04:55:03.103Z,17.50
2018-06-25T05:00:00.396Z,17.50
2018-06-25T05:02:29.100Z,17.50
2018-06-25T05:04:57.854Z,17.60
2018-06-25T05:07:26.585Z,17.60
2018-06-25T05:12:23.576Z,17.50
2018-06-25T05:17:20.647Z,17.60
2018-06-25T05:19:49.360Z,17.60
2018-06-25T05:22:18.097Z,17.70
2018-06-25T05:24:46.866Z,17.70
2018-06-25T05:27:15.547Z,17.70
2018-06-25T05:29:44.276Z,17.80
2018-06-25T05:32:13.111Z,17.90
2018-06-25T05:34:42.455Z,18.00
2018-06-25T05:39:40.311Z,17.80
2018-06-25T05:42:13.203Z,17.70
2018-06-25T05:44:41.872Z,17.80
2018-06-25T05:47:10.577Z,17.80
2018-06-25T05:49:39.333Z,17.90
2018-06-25T05:52:08.008Z,18.00
2018-06-25T05:54:36.775Z,18.00
2018-06-25T05:57:05.508Z,18.00
2018-06-25T05:59:34.212Z,18.10
2018-06-25T06:02:02.983Z,18.10
2018-06-25T06:04:44.942Z,18.10
2018-06-25T06:07:14.099Z,18.10
2018-06-25T06:09:43.049Z,17.90
2018-06-25T06:12:11.768Z,18.10
2018-06-25T06:14:40.723Z,18.10
2018-06-25T06:17:09.447Z,18.20
2018-06-25T06:19:38.238Z,18.30
2018-06-25T06:22:07.090Z,18.30
2018-06-25T06:24:35.982Z,18.40
2018-06-25T06:27:04.840Z,18.40
2018-06-25T06:29:33.512Z,18.50
2018-06-25T06:32:03.136Z,18.70
2018-06-25T06:34:31.959Z,18.70
2018-06-25T06:37:00.635Z,18.70
2018-06-25T06:39:29.334Z,18.80
2018-06-25T06:41:58.108Z,18.80
2018-06-25T06:44:26.820Z,19.00
2018-06-25T06:46:55.567Z,19.10
2018-06-25T06:49:26.276Z,19.20
2018-06-25T06:51:55.884Z,19.20
2018-06-25T06:54:24.859Z,19.20
2018-06-25T06:59:22.475Z,19.20
2018-06-25T07:01:51.219Z,19.30
2018-06-25T07:04:21.087Z,19.40
2018-06-25T07:06:56.968Z,19.30
2018-06-25T07:09:38.454Z,19.40
2018-06-25T07:12:10.112Z,19.40
2018-06-25T07:14:38.800Z,19.50
2018-06-25T07:17:07.616Z,19.50
2018-06-25T07:19:36.343Z,19.50
2018-06-25T07:22:05.045Z,19.30
2018-06-25T07:24:33.756Z,19.30
2018-06-25T07:27:02.552Z,19.20
2018-06-25T07:31:59.633Z,19.50
2018-06-25T07:34:28.304Z,19.50
2018-06-25T07:36:57.027Z,19.50
2018-06-25T07:39:26.064Z,19.50
2018-06-25T07:41:54.811Z,19.60
2018-06-25T07:44:23.470Z,19.70
2018-06-25T07:46:52.184Z,19.70
2018-06-25T07:49:20.912Z,19.40
2018-06-25T07:51:49.626Z,19.40
2018-06-25T07:58:15.908Z,19.60
2018-06-25T08:00:44.722Z,19.50
2018-06-25T08:03:13.445Z,19.60
2018-06-25T08:08:10.606Z,19.60
2018-06-25T08:15:36.375Z,19.90
2018-06-25T08:18:05.105Z,19.80
2018-06-25T08:23:02.375Z,19.90
2018-06-25T08:25:30.982Z,19.80
2018-06-25T08:27:59.706Z,19.80
2018-06-25T08:30:28.459Z,19.70
2018-06-25T08:32:57.287Z,19.70
2018-06-25T08:37:54.387Z,19.90
2018-06-25T08:40:23.077Z,20.10
2018-06-25T08:42:52.000Z,20.20
2018-06-25T08:45:20.717Z,20.30
2018-06-25T08:47:49.421Z,20.40
2018-06-25T08:52:46.546Z,20.50
2018-06-25T08:55:15.311Z,20.40
2018-06-25T09:00:12.420Z,20.20
2018-06-25T09:02:41.172Z,20.20
2018-06-25T09:05:09.951Z,20.60
2018-06-25T09:07:38.607Z,20.80
2018-06-25T09:10:07.315Z,20.80
2018-06-25T09:12:36.030Z,21.20
2018-06-25T09:15:05.061Z,20.90
2018-06-25T09:17:33.717Z,20.80
2018-06-25T09:20:02.511Z,20.60
2018-06-25T09:22:31.264Z,20.50
2018-06-25T09:24:59.936Z,20.60
2018-06-25T09:27:32.895Z,20.60
2018-06-25T09:30:01.635Z,20.70
2018-06-25T09:32:30.411Z,20.80
2018-06-25T09:34:59.133Z,20.90
2018-06-25T09:37:27.849Z,20.80
2018-06-25T09:39:56.575Z,20.80
2018-06-25T09:42:25.267Z,20.80
2018-06-25T09:44:54.041Z,20.90
2018-06-25T09:49:51.159Z,21.20
2018-06-25T09:52:19.959Z,21.10
2018-06-25T09:54:48.735Z,21.10
2018-06-25T09:57:17.372Z,21.20
2018-06-25T09:59:46.096Z,21.10
2018-06-25T10:02:14.884Z,21.00
2018-06-25T10:04:43.610Z,21.20
2018-06-25T10:07:12.294Z,21.40
2018-06-25T10:09:40.990Z,21.40
2018-06-25T10:12:09.809Z,21.80
2018-06-25T10:14:38.548Z,22.10
2018-06-25T10:17:07.547Z,22.10
2018-06-25T10:19:36.243Z,22.30
2018-06-25T10:22:05.003Z,22.40
2018-06-25T10:24:33.760Z,22.20
2018-06-25T10:27:02.504Z,22.10
2018-06-25T10:29:31.264Z,22.10
2018-06-25T10:32:00.077Z,22.10
2018-06-25T10:34:28.799Z,22.30
2018-06-25T10:36:57.502Z,22.40
2018-06-25T10:39:26.244Z,22.50
2018-06-25T10:41:55.027Z,22.50
2018-06-25T10:44:23.728Z,22.60
2018-06-25T10:46:52.491Z,22.40
2018-06-25T10:51:49.505Z,22.10
2018-06-25T10:54:18.157Z,22.10
2018-06-25T10:56:46.869Z,22.20
2018-06-25T10:59:15.587Z,22.20
2018-06-25T11:01:44.362Z,22.20
2018-06-25T11:04:13.128Z,22.40
2018-06-25T11:06:41.843Z,22.40
2018-06-25T11:09:11.263Z,22.50
2018-06-25T11:11:40.078Z,22.50
2018-06-25T11:14:08.789Z,22.50
2018-06-25T11:16:37.485Z,22.50
2018-06-25T11:19:06.168Z,22.50
2018-06-25T11:21:34.882Z,22.70
2018-06-25T11:24:03.696Z,23.10
2018-06-25T11:26:32.466Z,23.20
2018-06-25T11:29:01.137Z,24.00
2018-06-25T11:31:29.875Z,24.30
2018-06-25T11:33:58.529Z,24.80
2018-06-25T11:36:27.285Z,25.00
2018-06-25T11:38:56.025Z,24.70
2018-06-25T11:41:24.839Z,24.60
2018-06-25T11:43:53.521Z,24.80
2018-06-25T11:46:22.347Z,24.70
2018-06-25T11:51:19.505Z,24.10
2018-06-25T11:53:48.221Z,23.90
2018-06-25T11:58:45.279Z,23.70
2018-06-25T12:01:13.999Z,24.20
2018-06-25T12:03:42.691Z,24.70
2018-06-25T12:06:11.479Z,24.80
2018-06-25T12:08:40.216Z,25.20
2018-06-25T12:11:08.939Z,25.00
2018-06-25T12:13:37.677Z,24.90
2018-06-25T12:16:06.488Z,24.90
2018-06-25T12:21:03.642Z,25.50
2018-06-25T12:26:00.739Z,25.90
2018-06-25T12:40:53.553Z,24.80
2018-06-25T12:45:50.746Z,24.40
2018-06-25T12:48:19.503Z,24.30
2018-06-25T12:50:48.237Z,24.20
2018-06-25T12:53:17.007Z,24.30
2018-06-25T12:55:45.709Z,24.40
2018-06-25T12:58:14.459Z,25.00
2018-06-25T13:00:43.119Z,25.20
2018-06-25T13:03:11.809Z,25.10
2018-06-25T13:05:40.564Z,25.00
2018-06-25T13:08:09.246Z,25.20
2018-06-25T13:13:06.284Z,25.80
2018-06-25T13:15:35.037Z,25.80
2018-06-25T13:18:03.889Z,25.60
2018-06-25T13:25:29.415Z,26.10
2018-06-25T13:27:58.216Z,26.70
2018-06-25T13:30:26.949Z,27.20
2018-06-25T13:32:55.697Z,27.80
2018-06-25T13:35:24.381Z,28.10
2018-06-25T13:40:21.513Z,28.40
2018-06-25T13:42:50.205Z,28.70
2018-06-25T13:47:47.339Z,29.20
2018-06-25T13:50:16.019Z,29.30
2018-06-25T13:52:44.773Z,29.20
2018-06-25T13:57:42.135Z,27.80
2018-06-25T14:00:10.871Z,27.10
2018-06-25T14:02:39.672Z,26.60
2018-06-25T14:05:08.407Z,26.20
2018-06-25T14:07:37.175Z,26.80
2018-06-25T14:10:07.263Z,27.60
2018-06-25T14:12:36.031Z,28.00
2018-06-25T14:15:06.196Z,27.90
2018-06-25T14:17:35.933Z,27.80
2018-06-25T14:20:04.735Z,28.10
2018-06-25T14:25:02.376Z,28.80
2018-06-25T14:27:35.407Z,28.70
2018-06-25T14:30:10.278Z,28.90
2018-06-25T14:32:40.023Z,29.20
2018-06-25T14:35:14.790Z,29.40
2018-06-25T14:37:43.950Z,29.30
2018-06-25T14:40:12.841Z,28.70
2018-06-25T14:42:41.810Z,28.00
2018-06-25T14:45:11.300Z,27.40
2018-06-25T14:50:08.591Z,27.30
2018-06-25T14:52:37.416Z,27.90
2018-06-25T15:06:29.095Z,26.60
2018-06-25T15:11:26.215Z,25.80
2018-06-25T15:16:23.288Z,25.50
2018-06-25T15:18:52.078Z,25.40
2018-06-25T15:23:49.188Z,25.20
2018-06-25T15:26:17.876Z,25.20
2018-06-25T15:31:15.189Z,24.90
2018-06-25T15:33:43.975Z,24.90
2018-06-25T15:36:12.738Z,25.60
2018-06-25T15:38:41.800Z,26.60
2018-06-25T15:41:10.525Z,27.30
2018-06-25T15:43:40.402Z,28.10
2018-06-25T15:46:09.290Z,28.50
2018-06-25T15:51:07.216Z,29.00
2018-06-25T15:53:36.185Z,29.40
2018-06-25T15:56:04.966Z,29.50
2018-06-25T15:58:33.706Z,29.90
2018-06-25T16:01:02.487Z,30.00
2018-06-25T16:03:31.268Z,30.30
2018-06-25T16:06:00.204Z,30.60
2018-06-25T16:08:29.014Z,30.60
2018-06-25T16:10:57.837Z,30.60
2018-06-25T16:13:26.596Z,30.60
2018-06-25T16:15:55.348Z,30.60
2018-06-25T16:18:25.709Z,30.40
2018-06-25T16:23:23.749Z,29.40
2018-06-25T16:25:52.419Z,28.70
2018-06-25T16:28:21.114Z,28.20
2018-06-25T16:30:49.828Z,27.80
2018-06-25T16:35:47.245Z,26.50
2018-06-25T16:38:17.599Z,26.60
2018-06-25T16:40:46.837Z,27.30
2018-06-25T16:43:16.553Z,27.90
2018-06-25T16:45:47.812Z,27.90
2018-06-25T16:48:16.538Z,28.80
2018-06-25T16:50:45.210Z,28.80
2018-06-25T16:53:13.946Z,28.30
2018-06-25T16:58:11.064Z,28.10
2018-06-25T17:00:39.841Z,28.50
2018-06-25T17:03:08.500Z,28.90
2018-06-25T17:05:37.218Z,29.30
2018-06-25T17:08:05.947Z,29.60
2018-06-25T17:10:34.674Z,29.80
2018-06-25T17:13:03.396Z,29.80
2018-06-25T17:15:32.099Z,29.50
2018-06-25T17:18:00.867Z,29.50
2018-06-25T17:20:29.539Z,29.50
2018-06-25T17:25:26.640Z,29.30
2018-06-25T17:27:55.313Z,29.30
2018-06-25T17:30:23.992Z,29.30
2018-06-25T17:32:52.705Z,28.50
2018-06-25T17:35:21.542Z,28.50
2018-06-25T17:37:50.291Z,28.00
2018-06-25T17:42:47.495Z,27.20
2018-06-25T17:45:16.221Z,26.70
2018-06-25T17:47:44.893Z,26.30
2018-06-25T17:50:13.580Z,25.90
2018-06-25T17:52:42.284Z,25.80
2018-06-25T17:55:11.042Z,26.00
2018-06-25T17:57:39.716Z,26.30
2018-06-25T18:00:08.423Z,26.60
2018-06-25T18:02:39.579Z,27.10
2018-06-25T18:05:08.620Z,27.30
2018-06-25T18:07:37.351Z,27.50
2018-06-25T18:10:06.479Z,27.40
2018-06-25T18:12:35.150Z,27.50
2018-06-25T18:15:04.256Z,27.60
2018-06-25T18:17:32.971Z,27.60
2018-06-25T18:20:01.614Z,27.60
2018-06-25T18:22:30.384Z,27.50
2018-06-25T18:24:59.182Z,27.40
2018-06-25T18:27:27.902Z,27.10
2018-06-25T18:29:56.590Z,27.10
2018-06-25T18:32:25.440Z,27.00
2018-06-25T18:34:54.106Z,26.90
2018-06-25T18:37:22.836Z,26.70
2018-06-25T18:39:56.279Z,26.60
2018-06-25T18:42:25.156Z,26.60
2018-06-25T18:44:54.002Z,26.50
2018-06-25T18:47:22.888Z,26.40
2018-06-25T18:49:51.586Z,26.30
2018-06-25T18:54:49.474Z,25.80
2018-06-25T18:57:19.083Z,25.60
2018-06-25T18:59:47.701Z,25.50
2018-06-25T19:02:16.786Z,25.30
2018-06-25T19:04:45.504Z,25.00
2018-06-25T19:07:14.223Z,24.80
2018-06-25T19:09:43.467Z,24.60
2018-06-25T19:12:12.342Z,24.20
2018-06-25T19:24:50.565Z,23.00
2018-06-25T19:27:19.584Z,22.90
2018-06-25T19:29:48.300Z,22.70
2018-06-25T19:32:17.204Z,22.60
2018-06-25T19:34:46.242Z,22.50
2018-06-25T19:37:14.919Z,22.40
2018-06-25T19:39:43.692Z,22.20
2018-06-25T19:42:12.385Z,22.00
2018-06-25T19:44:41.961Z,21.90
2018-06-25T19:47:10.909Z,21.70
2018-06-25T19:49:39.575Z,21.50
2018-06-25T19:52:08.287Z,21.40
2018-06-25T19:57:05.429Z,21.30
2018-06-25T19:59:34.092Z,21.10
2018-06-25T20:04:31.813Z,20.90
2018-06-25T20:07:00.568Z,20.90
2018-06-25T20:09:29.259Z,21.00
2018-06-25T20:12:00.502Z,20.90
2018-06-25T20:16:58.179Z,20.80
2018-06-25T20:21:55.808Z,20.80
2018-06-25T20:24:25.210Z,20.60
2018-06-25T20:26:54.137Z,20.60
2018-06-25T20:31:51.187Z,20.60
2018-06-25T20:34:21.230Z,20.60
2018-06-25T20:39:18.283Z,20.30
2018-06-25T20:44:15.383Z,20.10
2018-06-25T20:46:44.051Z,20.00
2018-06-25T20:49:12.874Z,19.90
2018-06-25T20:51:41.494Z,19.70
2018-06-25T20:54:10.535Z,19.70
2018-06-25T20:56:39.375Z,19.60
2018-06-25T20:59:08.885Z,19.60
2018-06-25T21:01:37.572Z,19.50
2018-06-25T21:04:06.316Z,19.50
2018-06-25T21:06:34.995Z,19.50
2018-06-25T21:09:05.469Z,19.40
2018-06-25T21:11:34.135Z,19.40
2018-06-25T21:16:31.124Z,19.30
2018-06-25T21:18:59.836Z,19.20
2018-06-25T21:21:28.562Z,19.10
2018-06-25T21:23:57.290Z,19.10
2018-06-25T21:26:25.976Z,19.00
2018-06-25T21:28:54.879Z,18.80
2018-06-25T21:31:23.563Z,18.70
2018-06-25T21:33:52.298Z,18.70
2018-06-25T21:36:21.028Z,18.80
2018-06-25T21:38:49.788Z,18.80
2018-06-25T21:41:19.071Z,18.80
2018-06-25T21:46:16.168Z,18.80
2018-06-25T21:48:44.836Z,18.80
2018-06-25T21:51:13.509Z,18.70
2018-06-25T21:53:42.192Z,18.60
2018-06-25T21:56:10.890Z,18.50
2018-06-25T21:58:39.576Z,18.30
2018-06-25T22:01:08.269Z,18.10
2018-06-25T22:03:36.912Z,18.10
2018-06-25T22:06:05.871Z,18.20
2018-06-25T22:08:34.637Z,18.20
2018-06-25T22:11:03.343Z,18.30
2018-06-25T22:13:32.096Z,18.20
2018-06-25T22:16:00.822Z,18.20
2018-06-25T22:18:29.553Z,18.00
2018-06-25T22:20:58.245Z,17.90
2018-06-25T22:23:26.904Z,17.80
2018-06-25T22:25:55.630Z,17.80
2018-06-25T22:28:24.374Z,17.90
2018-06-25T22:30:53.073Z,17.90
2018-06-25T22:33:21.753Z,17.80
2018-06-25T22:35:50.552Z,17.90
2018-06-25T22:38:19.226Z,17.80
2018-06-25T22:43:16.263Z,17.70
2018-06-25T22:45:44.951Z,17.40
2018-06-25T22:48:13.649Z,17.50
2018-06-25T22:50:42.347Z,17.50
2018-06-25T22:53:11.026Z,17.50
2018-06-25T22:55:39.973Z,17.30
2018-06-25T22:58:08.706Z,17.30
2018-06-25T23:00:37.449Z,17.30
2018-06-25T23:03:06.707Z,17.30
2018-06-25T23:05:35.825Z,17.20
2018-06-25T23:08:04.468Z,17.20
2018-06-25T23:10:33.174Z,17.10
2018-06-25T23:13:01.843Z,17.10
2018-06-25T23:17:58.872Z,17.10
2018-06-25T23:20:27.630Z,17.10
2018-06-25T23:22:57.358Z,17.10
2018-06-25T23:25:26.583Z,17.10
2018-06-25T23:27:55.284Z,17.00
2018-06-25T23:30:23.947Z,16.90
2018-06-25T23:32:52.616Z,16.90
2018-06-25T23:35:21.392Z,16.80
2018-06-25T23:37:50.029Z,16.90
2018-06-25T23:40:18.761Z,16.80
2018-06-25T23:45:15.844Z,16.70
2018-06-25T23:47:44.472Z,16.60
2018-06-25T23:50:13.147Z,16.50
2018-06-25T23:55:10.162Z,16.30
2018-06-25T23:57:38.876Z,16.20
